createdAt,value
2018-11-03T00:00:44.044Z,6.04
2018-11-03T00:03:12.654Z,6.15
2018-11-03T00:05:40.963Z,6.16
2018-11-03T00:08:09.395Z,6.20
2018-11-03T00:10:37.706Z,6.19
2018-11-03T00:13:06.334Z,6.22
2018-11-03T00:15:35.027Z,6.22
2018-11-03T00:18:03.356Z,6.24
2018-11-03T00:20:31.670Z,6.19
2018-11-03T00:22:59.989Z,6.15
2018-11-03T00:25:28.338Z,6.18
2018-11-03T00:27:56.706Z,6.30
2018-11-03T00:30:25.119Z,6.37
2018-11-03T00:32:53.549Z,6.44
2018-11-03T00:35:21.911Z,6.40
2018-11-03T00:37:50.188Z,6.50
2018-11-03T00:40:18.505Z,6.44
2018-11-03T00:42:47.003Z,6.61
2018-11-03T00:45:15.295Z,6.79
2018-11-03T00:47:44.372Z,6.73
2018-11-03T00:50:14.716Z,6.72
2018-11-03T00:52:43.189Z,6.73
2018-11-03T00:55:12.131Z,6.76
2018-11-03T00:57:41.025Z,6.89
2018-11-03T01:00:14.651Z,6.85
2018-11-03T01:02:44.118Z,6.84
2018-11-03T01:05:12.988Z,6.72
2018-11-03T01:07:42.104Z,6.73
2018-11-03T01:10:10.880Z,6.70
2018-11-03T01:12:39.719Z,6.71
2018-11-03T01:15:10.207Z,6.74
2018-11-03T01:17:38.920Z,6.69
2018-11-03T01:20:09.030Z,6.82
2018-11-03T01:22:37.474Z,6.71
2018-11-03T01:25:06.038Z,6.71
2018-11-03T01:27:34.376Z,6.66
2018-11-03T01:30:02.662Z,6.62
2018-11-03T01:32:31.108Z,6.62
2018-11-03T01:34:59.358Z,6.77
2018-11-03T01:37:27.700Z,6.75
2018-11-03T01:39:56.150Z,6.82
2018-11-03T01:42:24.510Z,6.86
2018-11-03T01:44:52.871Z,6.89
2018-11-03T01:47:21.215Z,6.86
2018-11-03T01:49:49.541Z,7.01
2018-11-03T01:52:17.921Z,7.02
2018-11-03T01:54:46.255Z,6.85
2018-11-03T01:57:14.688Z,6.86
2018-11-03T01:59:43.039Z,6.83
2018-11-03T02:02:11.379Z,6.80
2018-11-03T02:04:39.708Z,6.78
2018-11-03T02:07:08.088Z,6.81
2018-11-03T02:09:36.640Z,6.65
2018-11-03T02:12:05.200Z,6.64
2018-11-03T02:14:33.497Z,6.60
2018-11-03T02:17:01.939Z,6.78
2018-11-03T02:19:30.990Z,6.71
2018-11-03T02:21:59.394Z,6.62
2018-11-03T02:24:27.937Z,6.55
2018-11-03T02:26:56.763Z,6.58
2018-11-03T02:29:25.304Z,6.60
2018-11-03T02:31:53.759Z,6.53
2018-11-03T02:34:22.064Z,6.54
2018-11-03T02:36:50.399Z,6.46
2018-11-03T02:39:18.763Z,6.47
2018-11-03T02:41:47.098Z,6.47
2018-11-03T02:44:15.427Z,6.47
2018-11-03T02:46:43.994Z,6.39
2018-11-03T02:49:12.430Z,6.37
2018-11-03T02:51:40.771Z,6.32
2018-11-03T02:54:09.099Z,6.40
2018-11-03T02:56:37.433Z,6.39
2018-11-03T02:59:05.986Z,6.35
2018-11-03T03:01:34.418Z,6.29
2018-11-03T03:04:02.838Z,6.26
2018-11-03T03:06:31.260Z,6.30
2018-11-03T03:08:59.626Z,6.16
2018-11-03T03:11:27.979Z,6.21
2018-11-03T03:13:56.406Z,6.16
2018-11-03T03:16:24.834Z,6.27
2018-11-03T03:18:53.110Z,6.15
2018-11-03T03:21:21.474Z,6.31
2018-11-03T03:23:49.811Z,6.26
2018-11-03T03:26:18.243Z,6.24
2018-11-03T03:28:46.584Z,6.17
2018-11-03T03:31:14.850Z,6.27
2018-11-03T03:33:43.186Z,6.18
2018-11-03T03:36:11.567Z,6.24
2018-11-03T03:38:39.993Z,6.33
2018-11-03T03:41:08.338Z,6.34
2018-11-03T03:43:36.649Z,6.38
2018-11-03T03:46:05.244Z,6.40
2018-11-03T03:48:33.648Z,6.39
2018-11-03T03:51:02.108Z,6.35
2018-11-03T03:53:30.485Z,6.36
2018-11-03T03:55:58.810Z,6.26
2018-11-03T03:58:27.112Z,6.28
2018-11-03T04:00:55.450Z,6.19
2018-11-03T04:03:23.900Z,6.14
2018-11-03T04:05:52.274Z,6.20
2018-11-03T04:08:20.584Z,6.21
2018-11-03T04:10:48.911Z,6.26
2018-11-03T04:13:17.231Z,6.16
2018-11-03T04:15:45.575Z,6.26
2018-11-03T04:18:13.899Z,6.21
2018-11-03T04:20:42.212Z,6.19
2018-11-03T04:23:10.547Z,6.12
2018-11-03T04:25:39.025Z,6.08
2018-11-03T04:28:09.167Z,5.98
2018-11-03T04:30:37.423Z,5.98
2018-11-03T04:33:05.978Z,6.00
2018-11-03T04:35:34.421Z,5.87
2018-11-03T04:38:02.720Z,5.70
2018-11-03T04:40:31.086Z,5.71
2018-11-03T04:42:59.398Z,5.61
2018-11-03T04:45:27.803Z,5.61
2018-11-03T04:47:56.175Z,5.69
2018-11-03T04:50:24.508Z,5.66
2018-11-03T04:52:52.784Z,5.61
2018-11-03T04:55:21.233Z,5.63
2018-11-03T04:57:49.442Z,5.63
2018-11-03T05:00:17.748Z,5.63
2018-11-03T05:02:46.175Z,5.56
2018-11-03T05:05:14.498Z,5.61
2018-11-03T05:07:42.811Z,5.57
2018-11-03T05:10:11.203Z,5.49
2018-11-03T05:12:39.490Z,5.73
2018-11-03T05:15:07.813Z,5.41
2018-11-03T05:17:36.420Z,5.50
2018-11-03T05:20:04.858Z,5.46
2018-11-03T05:22:33.156Z,5.21
2018-11-03T05:25:01.487Z,4.86
2018-11-03T05:27:29.880Z,4.81
2018-11-03T05:29:58.200Z,4.77
2018-11-03T05:32:26.498Z,4.98
2018-11-03T05:34:54.839Z,4.80
2018-11-03T05:37:23.181Z,4.75
2018-11-03T05:39:51.504Z,4.69
2018-11-03T05:42:19.807Z,4.38
2018-11-03T05:44:48.135Z,4.52
2018-11-03T05:47:16.439Z,4.65
2018-11-03T05:49:44.767Z,4.44
2018-11-03T05:52:13.114Z,4.51
2018-11-03T05:54:41.444Z,4.13
2018-11-03T05:57:09.763Z,3.78
2018-11-03T05:59:38.128Z,3.71
2018-11-03T06:02:06.502Z,3.57
2018-11-03T06:04:34.890Z,3.75
2018-11-03T06:07:03.174Z,3.85
2018-11-03T06:09:31.490Z,3.90
2018-11-03T06:11:59.793Z,3.71
2018-11-03T06:14:28.114Z,3.74
2018-11-03T06:16:56.436Z,3.28
2018-11-03T06:19:24.743Z,2.97
2018-11-03T06:21:53.178Z,3.04
2018-11-03T06:24:21.537Z,3.08
2018-11-03T06:26:49.922Z,3.31
2018-11-03T06:29:18.248Z,3.41
2018-11-03T06:31:46.543Z,3.24
2018-11-03T06:34:15.099Z,2.96
2018-11-03T06:36:43.451Z,2.79
2018-11-03T06:39:12.261Z,2.87
2018-11-03T06:41:41.889Z,2.92
2018-11-03T06:44:10.373Z,2.86
2018-11-03T06:46:40.719Z,3.03
2018-11-03T06:49:14.436Z,2.96
2018-11-03T06:51:42.847Z,3.11
2018-11-03T06:54:11.327Z,3.10
2018-11-03T06:56:39.764Z,3.13
2018-11-03T06:59:08.043Z,3.15
2018-11-03T07:01:36.351Z,3.06
2018-11-03T07:04:04.692Z,3.10
2018-11-03T07:06:34.340Z,3.01
2018-11-03T07:09:03.056Z,2.92
2018-11-03T07:11:31.718Z,3.01
2018-11-03T07:14:01.219Z,2.94
2018-11-03T07:16:29.867Z,2.94
2018-11-03T07:18:58.230Z,2.97
2018-11-03T07:21:26.583Z,2.87
2018-11-03T07:23:55.096Z,2.91
2018-11-03T07:26:23.442Z,2.93
2018-11-03T07:28:51.769Z,2.87
2018-11-03T07:31:20.114Z,2.91
2018-11-03T07:33:48.468Z,2.98
2018-11-03T07:36:17.015Z,2.99
2018-11-03T07:38:45.381Z,2.91
2018-11-03T07:41:13.862Z,2.77
2018-11-03T07:43:42.322Z,2.91
2018-11-03T07:46:11.004Z,3.05
2018-11-03T07:48:40.168Z,2.98
2018-11-03T07:51:10.897Z,3.03
2018-11-03T07:53:40.467Z,3.13
2018-11-03T07:56:09.074Z,3.35
2018-11-03T07:58:38.484Z,3.42
2018-11-03T08:01:07.395Z,3.44
2018-11-03T08:03:35.812Z,3.58
2018-11-03T08:06:04.198Z,3.67
2018-11-03T08:08:32.531Z,3.73
2018-11-03T08:11:01.314Z,3.84
2018-11-03T08:13:29.915Z,3.93
2018-11-03T08:15:58.207Z,3.97
2018-11-03T08:18:26.848Z,4.07
2018-11-03T08:20:55.162Z,4.14
2018-11-03T08:23:23.472Z,4.33
2018-11-03T08:25:51.813Z,4.40
2018-11-03T08:28:20.113Z,4.57
2018-11-03T08:30:48.446Z,4.68
2018-11-03T08:33:16.795Z,4.87
2018-11-03T08:35:46.364Z,4.99
2018-11-03T08:38:14.692Z,5.18
2018-11-03T08:40:43.042Z,5.27
2018-11-03T08:43:11.491Z,5.40
2018-11-03T08:45:39.836Z,5.50
2018-11-03T08:48:08.223Z,5.65
2018-11-03T08:50:36.491Z,5.88
2018-11-03T08:53:05.018Z,6.01
2018-11-03T08:55:33.307Z,6.10
2018-11-03T08:58:01.777Z,6.14
2018-11-03T09:00:30.281Z,6.16
2018-11-03T09:02:58.980Z,6.30
2018-11-03T09:05:27.351Z,6.24
2018-11-03T09:07:55.774Z,6.40
2018-11-03T09:10:24.258Z,6.48
2018-11-03T09:12:52.680Z,6.55
2018-11-03T09:15:21.187Z,6.55
2018-11-03T09:17:55.148Z,6.59
2018-11-03T09:20:23.525Z,6.84
2018-11-03T09:22:52.426Z,6.82
2018-11-03T09:25:21.117Z,6.92
2018-11-03T09:27:49.653Z,6.84
2018-11-03T09:30:19.292Z,6.98
2018-11-03T09:32:47.766Z,6.84
2018-11-03T09:35:16.726Z,6.93
2018-11-03T09:37:45.071Z,7.06
2018-11-03T09:40:14.704Z,7.01
2018-11-03T09:42:44.344Z,7.08
2018-11-03T09:45:13.217Z,7.14
2018-11-03T09:47:42.059Z,7.16
2018-11-03T09:50:12.029Z,7.11
2018-11-03T09:52:40.900Z,7.33
2018-11-03T09:55:11.936Z,7.34
2018-11-03T09:57:40.448Z,7.40
2018-11-03T10:00:16.189Z,7.37
2018-11-03T10:02:45.280Z,7.49
2018-11-03T10:05:15.038Z,7.53
2018-11-03T10:07:43.708Z,7.50
2018-11-03T10:10:14.755Z,7.53
2018-11-03T10:12:43.436Z,7.55
2018-11-03T10:15:12.841Z,7.61
2018-11-03T10:17:41.329Z,7.66
2018-11-03T10:20:10.216Z,7.59
2018-11-03T10:22:38.910Z,7.58
2018-11-03T10:25:13.015Z,7.65
2018-11-03T10:27:42.399Z,7.73
2018-11-03T10:30:12.299Z,7.79
2018-11-03T10:32:41.649Z,7.97
2018-11-03T10:35:11.422Z,7.94
2018-11-03T10:37:39.910Z,7.96
2018-11-03T10:40:11.497Z,7.95
2018-11-03T10:42:40.225Z,8.05
2018-11-03T10:45:10.282Z,8.09
2018-11-03T10:47:40.039Z,8.22
2018-11-03T10:50:14.203Z,8.38
2018-11-03T10:52:43.369Z,8.36
2018-11-03T10:55:13.275Z,8.24
2018-11-03T10:57:41.921Z,8.25
2018-11-03T11:01:14.991Z,8.23
2018-11-03T11:03:49.488Z,8.33
2018-11-03T11:06:23.143Z,8.38
2018-11-03T11:08:56.803Z,8.40
2018-11-03T11:11:30.650Z,8.39
2018-11-03T11:13:59.257Z,8.47
2018-11-03T11:16:27.605Z,8.58
2018-11-03T11:18:55.945Z,8.48
2018-11-03T11:21:24.275Z,8.36
2018-11-03T11:23:52.891Z,8.40
2018-11-03T11:26:21.423Z,8.38
2018-11-03T11:28:49.790Z,8.47
2018-11-03T11:31:18.428Z,8.47
2018-11-03T11:33:46.831Z,8.42
2018-11-03T11:36:15.151Z,8.44
2018-11-03T11:38:43.676Z,8.40
2018-11-03T11:41:12.106Z,8.43
2018-11-03T11:43:40.454Z,8.42
2018-11-03T11:46:09.012Z,8.51
2018-11-03T11:48:37.354Z,8.67
2018-11-03T11:51:06.015Z,8.72
2018-11-03T11:53:34.342Z,8.80
2018-11-03T11:56:02.683Z,8.82
2018-11-03T11:58:30.998Z,8.88
2018-11-03T12:00:59.376Z,8.94
2018-11-03T12:03:27.679Z,8.87
2018-11-03T12:05:55.981Z,8.98
2018-11-03T12:08:24.342Z,9.10
2018-11-03T12:10:53.780Z,9.14
2018-11-03T12:13:22.274Z,9.01
2018-11-03T12:15:50.759Z,9.22
2018-11-03T12:18:19.142Z,9.27
2018-11-03T12:20:47.583Z,9.42
2018-11-03T12:23:16.104Z,9.40
2018-11-03T12:25:44.680Z,9.42
2018-11-03T12:28:13.080Z,9.55
2018-11-03T12:30:41.491Z,9.49
2018-11-03T12:33:09.783Z,9.51
2018-11-03T12:35:39.050Z,9.41
2018-11-03T12:38:08.643Z,9.43
2018-11-03T12:40:38.191Z,9.46
2018-11-03T12:43:11.439Z,9.39
2018-11-03T12:45:39.860Z,9.31
2018-11-03T12:48:08.191Z,9.15
2018-11-03T12:50:36.537Z,9.09
2018-11-03T12:53:04.876Z,9.18
2018-11-03T12:55:33.350Z,9.18
2018-11-03T12:58:01.660Z,9.14
2018-11-03T13:00:29.989Z,9.02
2018-11-03T13:02:59.264Z,9.02
2018-11-03T13:05:29.691Z,9.00
2018-11-03T13:07:59.907Z,8.99
2018-11-03T13:10:28.830Z,9.01
2018-11-03T13:12:58.254Z,9.01
2018-11-03T13:15:26.772Z,9.09
2018-11-03T13:17:55.557Z,9.02
2018-11-03T13:20:23.865Z,9.02
2018-11-03T13:22:52.235Z,9.08
2018-11-03T13:25:20.486Z,9.08
2018-11-03T13:27:48.887Z,9.14
2018-11-03T13:30:17.196Z,9.16
2018-11-03T13:32:45.506Z,9.10
2018-11-03T13:35:14.595Z,9.17
2018-11-03T13:37:42.949Z,9.14
2018-11-03T13:40:12.631Z,9.17
2018-11-03T13:42:41.351Z,9.18
2018-11-03T13:45:11.364Z,9.19
2018-11-03T13:47:40.253Z,9.18
2018-11-03T13:50:15.609Z,9.17
2018-11-03T13:52:45.491Z,9.26
2018-11-03T13:55:14.009Z,9.15
2018-11-03T13:57:43.623Z,9.09
2018-11-03T14:00:15.731Z,9.12
2018-11-03T14:02:45.138Z,9.12
2018-11-03T14:05:13.407Z,9.05
2018-11-03T14:08:09.949Z,9.00
2018-11-03T14:10:38.756Z,8.96
2018-11-03T14:13:07.202Z,8.98
2018-11-03T14:15:35.691Z,9.00
2018-11-03T14:18:04.044Z,8.94
2018-11-03T14:20:32.346Z,9.01
2018-11-03T14:23:00.711Z,9.02
2018-11-03T14:25:29.098Z,8.96
2018-11-03T14:27:57.593Z,8.94
2018-11-03T14:30:26.024Z,8.77
2018-11-03T14:33:13.575Z,8.78
2018-11-03T14:35:42.440Z,8.80
2018-11-03T14:38:10.885Z,8.78
2018-11-03T14:40:39.242Z,8.78
2018-11-03T14:43:07.698Z,8.85
2018-11-03T14:45:36.030Z,8.82
2018-11-03T14:48:04.385Z,8.79
2018-11-03T14:50:34.953Z,8.83
2018-11-03T14:53:03.529Z,8.84
2018-11-03T14:55:31.826Z,8.81
2018-11-03T14:58:02.295Z,8.91
2018-11-03T15:00:34.659Z,8.69
2018-11-03T15:03:03.394Z,8.71
2018-11-03T15:05:31.726Z,8.66
2018-11-03T15:08:00.042Z,8.72
2018-11-03T15:10:28.351Z,8.70
2018-11-03T15:12:56.684Z,8.66
2018-11-03T15:15:25.949Z,8.65
2018-11-03T15:17:58.416Z,8.63
2018-11-03T15:20:28.366Z,8.66
2018-11-03T15:22:56.779Z,8.65
2018-11-03T15:25:25.263Z,8.67
2018-11-03T15:27:53.738Z,8.65
2018-11-03T15:30:22.186Z,8.63
2018-11-03T15:32:50.675Z,8.66
2018-11-03T15:35:19.080Z,8.59
2018-11-03T15:37:47.621Z,8.53
2018-11-03T15:40:16.605Z,8.41
2018-11-03T15:42:45.305Z,8.29
2018-11-03T15:45:15.096Z,8.21
2018-11-03T15:47:43.839Z,8.05
2018-11-03T15:50:13.124Z,7.97
2018-11-03T15:52:41.840Z,7.93
2018-11-03T15:55:10.517Z,7.84
2018-11-03T15:57:39.006Z,7.84
2018-11-03T16:00:10.891Z,7.78
2018-11-03T16:02:39.371Z,7.68
2018-11-03T16:05:07.896Z,7.56
2018-11-03T16:07:37.002Z,7.33
2018-11-03T16:10:06.418Z,7.08
2018-11-03T16:12:34.772Z,6.92
2018-11-03T16:15:03.073Z,6.68
2018-11-03T16:17:31.396Z,6.62
2018-11-03T16:19:59.713Z,6.50
2018-11-03T16:22:28.190Z,6.39
2018-11-03T16:24:56.700Z,6.35
2018-11-03T16:27:25.017Z,6.19
2018-11-03T16:29:53.474Z,6.16
2018-11-03T16:32:22.234Z,5.81
2018-11-03T16:34:50.350Z,5.62
2018-11-03T16:37:18.710Z,5.59
2018-11-03T16:39:47.081Z,5.50
2018-11-03T16:42:15.414Z,5.42
2018-11-03T16:44:44.189Z,5.42
2018-11-03T16:47:12.559Z,5.36
2018-11-03T16:49:40.886Z,5.09
2018-11-03T16:52:09.234Z,4.97
2018-11-03T16:54:37.650Z,4.88
2018-11-03T16:57:06.047Z,4.86
2018-11-03T16:59:34.380Z,4.88
2018-11-03T17:02:02.681Z,4.83
2018-11-03T17:04:31.002Z,4.83
2018-11-03T17:06:59.505Z,4.97
2018-11-03T17:09:27.819Z,5.03
2018-11-03T17:11:56.115Z,4.88
2018-11-03T17:14:24.506Z,4.88
2018-11-03T17:16:52.864Z,4.89
2018-11-03T17:19:21.210Z,5.06
2018-11-03T17:21:49.514Z,5.16
2018-11-03T17:24:17.864Z,5.28
2018-11-03T17:26:46.338Z,5.38
2018-11-03T17:29:14.667Z,5.41
2018-11-03T17:31:42.974Z,5.36
2018-11-03T17:34:11.285Z,5.35
2018-11-03T17:36:39.699Z,5.41
2018-11-03T17:39:09.894Z,5.29
2018-11-03T17:41:38.457Z,5.22
2018-11-03T17:44:07.055Z,5.17
2018-11-03T17:46:35.710Z,5.25
2018-11-03T17:49:04.233Z,5.17
2018-11-03T17:51:32.538Z,5.08
2018-11-03T17:54:01.156Z,4.98
2018-11-03T17:56:30.287Z,4.87
2018-11-03T17:58:58.692Z,4.55
2018-11-03T18:01:27.879Z,4.37
2018-11-03T18:03:56.083Z,4.15
2018-11-03T18:06:24.883Z,4.31
2018-11-03T18:08:53.666Z,4.36
2018-11-03T18:11:22.675Z,4.18
2018-11-03T18:13:51.053Z,4.07
2018-11-03T18:16:19.415Z,3.89
2018-11-03T18:18:47.865Z,3.82
2018-11-03T18:21:16.233Z,3.67
2018-11-03T18:23:44.672Z,3.60
2018-11-03T18:26:13.172Z,3.66
2018-11-03T18:28:41.928Z,3.72
2018-11-03T18:31:10.470Z,3.63
2018-11-03T18:33:39.177Z,3.76
2018-11-03T18:36:07.690Z,3.74
2018-11-03T18:38:36.412Z,3.63
2018-11-03T18:41:05.455Z,3.55
2018-11-03T18:43:33.787Z,3.37
2018-11-03T18:46:02.273Z,3.26
2018-11-03T18:51:30.372Z,3.28
2018-11-03T18:53:58.873Z,3.30
2018-11-03T18:56:27.471Z,3.41
2018-11-03T18:58:55.902Z,3.42
2018-11-03T19:01:24.271Z,3.36
2018-11-03T19:03:52.691Z,3.26
2018-11-03T19:06:21.567Z,3.33
2018-11-03T19:08:50.474Z,3.24
2018-11-03T19:11:19.121Z,3.10
2018-11-03T19:13:47.451Z,3.19
2018-11-03T19:16:16.294Z,3.23
2018-11-03T19:18:44.571Z,3.22
2018-11-03T19:21:13.042Z,3.00
2018-11-03T19:23:41.503Z,3.03
2018-11-03T19:26:09.774Z,2.82
2018-11-03T19:28:38.105Z,2.71
2018-11-03T19:31:06.434Z,2.86
2018-11-03T19:33:34.732Z,2.97
2018-11-03T19:36:03.069Z,3.00
2018-11-03T19:38:31.409Z,2.73
2018-11-03T19:41:00.122Z,2.68
2018-11-03T19:43:28.477Z,2.83
2018-11-03T19:45:56.858Z,2.86
2018-11-03T19:48:25.229Z,2.86
2018-11-03T19:50:53.604Z,2.87
2018-11-03T19:54:02.445Z,2.62
2018-11-03T19:56:31.089Z,2.85
2018-11-03T19:58:59.455Z,2.85
2018-11-03T20:01:28.005Z,2.70
2018-11-03T20:03:56.297Z,2.61
2018-11-03T20:06:24.667Z,2.73
2018-11-03T20:08:53.044Z,2.63
2018-11-03T20:11:21.407Z,2.59
2018-11-03T20:13:49.858Z,2.41
2018-11-03T20:16:18.166Z,2.28
2018-11-03T20:18:46.687Z,2.30
2018-11-03T20:21:15.025Z,2.19
2018-11-03T20:23:43.506Z,2.43
2018-11-03T20:26:12.011Z,2.38
2018-11-03T20:28:40.410Z,2.45
2018-11-03T20:31:08.812Z,2.27
2018-11-03T20:33:37.140Z,2.20
2018-11-03T20:36:05.609Z,2.16
2018-11-03T20:38:34.542Z,2.38
2018-11-03T20:41:03.029Z,2.32
2018-11-03T20:43:31.707Z,2.47
2018-11-03T20:46:00.018Z,2.48
2018-11-03T20:48:28.454Z,2.54
2018-11-03T20:51:02.032Z,2.51
2018-11-03T20:53:30.435Z,2.40
2018-11-03T20:55:58.895Z,2.21
2018-11-03T20:58:27.306Z,2.15
2018-11-03T21:00:55.641Z,2.39
2018-11-03T21:03:24.422Z,2.40
2018-11-03T21:05:52.795Z,2.19
2018-11-03T21:08:21.142Z,2.13
2018-11-03T21:10:49.500Z,2.19
2018-11-03T21:13:17.799Z,2.26
2018-11-03T21:15:46.126Z,2.36
2018-11-03T21:18:14.482Z,2.43
2018-11-03T21:20:42.818Z,2.22
2018-11-03T21:23:11.132Z,2.03
2018-11-03T21:25:39.462Z,2.14
2018-11-03T21:28:08.033Z,2.25
2018-11-03T21:30:36.367Z,2.32
2018-11-03T21:33:05.173Z,2.22
2018-11-03T21:35:33.458Z,2.19
2018-11-03T21:38:02.257Z,2.28
2018-11-03T21:40:30.712Z,2.16
2018-11-03T21:42:59.037Z,2.10
2018-11-03T21:45:27.377Z,2.07
2018-11-03T21:47:55.656Z,2.05
2018-11-03T21:50:24.266Z,2.12
2018-11-03T21:52:52.602Z,2.18
2018-11-03T21:55:21.871Z,2.16
2018-11-03T21:57:50.262Z,1.88
2018-11-03T22:00:18.603Z,1.80
2018-11-03T22:02:46.920Z,1.73
2018-11-03T22:05:15.278Z,1.88
2018-11-03T22:07:45.734Z,1.78
2018-11-03T22:10:14.036Z,1.85
2018-11-03T22:12:43.048Z,1.96
2018-11-03T22:15:11.416Z,1.94
2018-11-03T22:17:39.722Z,2.02
2018-11-03T22:20:09.406Z,2.02
2018-11-03T22:22:37.805Z,1.99
2018-11-03T22:25:07.523Z,1.97
2018-11-03T22:27:36.358Z,1.83
2018-11-03T22:30:04.699Z,2.04
2018-11-03T22:32:32.930Z,2.10
2018-11-03T22:35:01.208Z,2.26
2018-11-03T22:37:29.593Z,2.20
2018-11-03T22:39:58.590Z,2.15
2018-11-03T22:42:26.981Z,2.30
2018-11-03T22:44:55.270Z,2.47
2018-11-03T22:47:23.517Z,2.53
2018-11-03T22:49:51.833Z,2.62
2018-11-03T22:52:20.095Z,2.56
2018-11-03T22:54:48.333Z,2.51
2018-11-03T22:57:16.735Z,2.61
2018-11-03T22:59:44.918Z,2.61
2018-11-03T23:02:13.334Z,2.61
2018-11-03T23:04:41.689Z,2.56
2018-11-03T23:07:09.936Z,2.53
2018-11-03T23:09:38.198Z,2.69
2018-11-03T23:12:06.462Z,2.85
2018-11-03T23:14:34.762Z,2.90
2018-11-03T23:17:23.774Z,3.00
2018-11-03T23:19:52.025Z,3.20
2018-11-03T23:22:20.276Z,3.15
2018-11-03T23:24:48.558Z,3.29
2018-11-03T23:27:16.819Z,3.25
2018-11-03T23:29:45.329Z,3.37
2018-11-03T23:32:13.453Z,3.46
2018-11-03T23:34:41.723Z,3.54
2018-11-03T23:37:09.985Z,3.44
2018-11-03T23:39:38.279Z,3.56
2018-11-03T23:42:06.579Z,3.72
2018-11-03T23:44:34.843Z,3.69
2018-11-03T23:47:03.073Z,3.77
2018-11-03T23:49:31.350Z,3.87
2018-11-03T23:51:59.592Z,4.05
2018-11-03T23:54:28.165Z,3.98
2018-11-03T23:56:56.451Z,4.08
2018-11-03T23:59:24.791Z,4.06
